Time,TemperatureF,DewpointF,PressureIn,WindDirection,WindDirectionDegrees,WindSpeedMPH,WindSpeedGustMPH,Humidity,HourlyPrecipIn,Conditions,Clouds,dailyrainin,SoftwareType,DateUTC
2013-09-15 00:00:00,68.0,61.2,30.66,SW,217,5.0,6.0,79,0.00,CLR,,0.00,WeatherDisplay:10.37,2013-09-15 07:00:00,
2013-09-15 00:10:00,67.0,60.3,30.66,SSW,211,5.0,6.0,79,0.00,CLR,,0.00,WeatherDisplay:10.37,2013-09-15 07:10:00,
2013-09-15 00:20:00,68.0,61.2,30.66,SW,229,3.0,6.0,79,0.00,CLR,,0.00,WeatherDisplay:10.37,2013-09-15 07:20:00,
2013-09-15 00:30:00,67.4,60.6,30.66,SW,225,3.0,6.0,79,0.00,CLR,,0.00,WeatherDisplay:10.37,2013-09-15 07:30:00,
2013-09-15 00:40:00,67.0,60.3,30.66,SW,225,3.0,6.0,79,0.00,CLR,,0.00,WeatherDisplay:10.37,2013-09-15 07:40:00,
2013-09-15 00:50:00,67.0,61.0,30.66,SW,217,6.0,7.0,81,0.00,CLR,,0.00,WeatherDisplay:10.37,2013-09-15 07:50:00,
2013-09-15 01:00:00,67.0,60.3,30.66,SSW,213,5.0,7.0,79,0.00,CLR,,0.00,WeatherDisplay:10.37,2013-09-15 08:00:00,
2013-09-15 01:10:00,67.0,59.9,30.66,SW,223,5.0,7.0,78,0.00,CLR,,0.00,WeatherDisplay:10.37,2013-09-15 08:10:00,
2013-09-15 01:20:00,67.0,59.5,30.66,SW,225,5.0,7.0,77,0.00,CLR,,0.00,WeatherDisplay:10.37,2013-09-15 08:20:00,
2013-09-15 01:30:00,67.0,60.3,30.66,SW,225,3.0,6.0,79,0.00,CLR,,0.00,WeatherDisplay:10.37,2013-09-15 08:30:00,
2013-09-15 01:40:00,66.0,60.7,30.66,SW,225,2.0,4.0,83,0.00,CLR,,0.00,WeatherDisplay:10.37,2013-09-15 08:40:00,
2013-09-15 01:50:00,65.0,60.4,30.67,SW,225,2.0,4.0,85,0.00,CLR,,0.00,WeatherDisplay:10.37,2013-09-15 08:50:00,
2013-09-15 02:00:00,65.0,60.4,30.67,SW,225,2.0,5.0,85,0.00,CLR,,0.00,WeatherDisplay:10.37,2013-09-15 09:00:00,
2013-09-15 02:10:00,65.0,60.7,30.67,SW,225,0.0,4.0,86,0.00,CLR,,0.00,WeatherDisplay:10.37,2013-09-15 09:10:00,
2013-09-15 02:20:00,64.0,60.1,30.67,NE,53,0.0,5.0,87,0.00,CLR,,0.00,WeatherDisplay:10.37,2013-09-15 09:20:00,
2013-09-15 02:30:00,64.0,60.7,30.68,ENE,67,0.0,2.0,89,0.00,CLR,,0.00,WeatherDisplay:10.37,2013-09-15 09:30:00,
2013-09-15 02:40:00,63.0,60.0,30.68,ENE,67,0.0,2.0,90,0.00,CLR,,0.00,WeatherDisplay:10.37,2013-09-15 09:40:00,
2013-09-15 02:50:00,62.0,59.6,30.69,ENE,67,0.0,0.0,92,0.00,CLR,,0.00,WeatherDisplay:10.37,2013-09-15 09:50:00,
2013-09-15 03:00:00,62.0,60.6,30.69,ENE,67,0.0,0.0,95,0.00,CLR,,0.00,WeatherDisplay:10.37,2013-09-15 10:00:00,
2013-09-15 03:10:00,62.0,60.6,30.69,ENE,67,0.0,0.0,95,0.00,CLR,,0.00,WeatherDisplay:10.37,2013-09-15 10:10:00,
2013-09-15 03:20:00,62.0,60.6,30.69,ENE,67,0.0,0.0,95,0.00,CLR,,0.00,WeatherDisplay:10.37,2013-09-15 10:20:00,
2013-09-15 03:30:00,62.0,60.6,30.69,ENE,67,0.0,0.0,95,0.00,CLR,,0.00,WeatherDisplay:10.37,2013-09-15 10:30:00,
2013-09-15 03:40:00,62.0,60.8,30.69,North,7,3.0,6.0,96,0.00,CLR,,0.00,WeatherDisplay:10.37,2013-09-15 10:40:00,
2013-09-15 03:50:00,62.0,60.8,30.70,North,360,3.0,6.0,96,0.00,CLR,,0.00,WeatherDisplay:10.37,2013-09-15 10:50:00,
2013-09-15 04:00:00,62.0,60.8,30.70,NNW,341,6.0,7.0,96,0.00,CLR,,0.00,WeatherDisplay:10.37,2013-09-15 11:00:00,
2013-09-15 04:10:00,63.0,61.8,30.70,NNW,334,6.0,9.0,96,0.00,CLR,,0.00,WeatherDisplay:10.37,2013-09-15 11:10:00,
2013-09-15 04:20:00,63.7,62.8,30.70,NNW,336,5.0,9.0,97,0.00,CLR,,0.00,WeatherDisplay:10.37,2013-09-15 11:20:00,
2013-09-15 04:30:00,64.0,62.8,30.70,North,352,2.0,7.0,96,0.00,CLR,,0.00,WeatherDisplay:10.37,2013-09-15 11:30:00,
2013-09-15 04:40:00,64.0,62.8,30.70,North,352,5.0,9.0,96,0.00,CLR,,0.00,WeatherDisplay:10.37,2013-09-15 11:40:00,
2013-09-15 04:50:00,63.3,61.9,30.71,North,353,5.0,9.0,95,0.00,CLR,,0.00,WeatherDisplay:10.37,2013-09-15 11:50:00,
2013-09-15 05:00:00,63.0,61.5,30.71,NNW,340,6.0,9.0,95,0.00,CLR,,0.00,WeatherDisplay:10.37,2013-09-15 12:00:00,
2013-09-15 05:10:00,64.0,62.5,30.72,NNW,334,7.0,10.0,95,0.00,CLR,,0.00,WeatherDisplay:10.37,2013-09-15 12:10:00,
2013-09-15 05:20:00,64.0,62.5,30.72,NNW,334,6.0,10.0,95,0.00,CLR,,0.00,WeatherDisplay:10.37,2013-09-15 12:20:00,
2013-09-15 05:30:00,64.0,62.2,30.72,NNW,330,8.0,12.0,94,0.00,CLR,,0.00,WeatherDisplay:10.37,2013-09-15 12:30:00,
2013-09-15 05:40:00,64.8,62.7,30.72,NNW,333,6.0,12.0,93,0.00,CLR,,0.00,WeatherDisplay:10.37,2013-09-15 12:40:00,
2013-09-15 05:50:00,64.0,61.9,30.72,NNW,332,8.0,12.0,93,0.00,CLR,,0.00,WeatherDisplay:10.37,2013-09-15 12:50:00,
2013-09-15 06:00:00,64.0,61.9,30.72,NNW,338,7.0,12.0,93,0.00,CLR,,0.00,WeatherDisplay:10.37,2013-09-15 13:00:00,
2013-09-15 06:10:00,64.0,61.3,30.73,NNW,340,7.0,12.0,91,0.00,CLR,,0.00,WeatherDisplay:10.37,2013-09-15 13:10:00,
2013-09-15 06:20:00,65.0,62.0,30.72,NNW,336,8.0,12.0,90,0.00,CLR,,0.00,WeatherDisplay:10.37,2013-09-15 13:20:00,
2013-09-15 06:30:00,66.0,61.7,30.72,NNW,333,8.0,12.0,86,0.00,CLR,,0.00,WeatherDisplay:10.37,2013-09-15 13:30:00,
2013-09-15 06:40:00,67.0,61.3,30.72,NNW,340,7.0,13.0,82,0.00,CLR,,0.00,WeatherDisplay:10.37,2013-09-15 13:40:00,
2013-09-15 06:50:00,68.0,61.6,30.71,NNW,337,8.0,13.0,80,0.00,CLR,,0.00,WeatherDisplay:10.37,2013-09-15 13:50:00,
2013-09-15 07:00:00,69.0,61.1,30.70,NNW,337,8.0,12.0,76,0.00,CLR,,0.00,WeatherDisplay:10.37,2013-09-15 14:00:00,
2013-09-15 07:10:00,70.0,60.9,30.68,NNW,336,9.0,13.0,73,0.00,CLR,,0.00,WeatherDisplay:10.37,2013-09-15 14:10:00,
2013-09-15 07:20:00,71.0,60.7,30.66,NNW,338,8.0,14.0,70,0.00,CLR,,0.00,WeatherDisplay:10.37,2013-09-15 14:20:00,
2013-09-15 07:30:00,71.0,60.3,30.64,NNW,341,8.0,15.0,69,0.00,CLR,,0.00,WeatherDisplay:10.37,2013-09-15 14:30:00,
2013-09-15 07:40:00,72.0,60.4,30.61,NNW,334,9.0,15.0,67,0.00,CLR,,0.00,WeatherDisplay:10.37,2013-09-15 14:40:00,
2013-09-15 07:50:00,73.0,61.0,30.60,NNW,343,9.0,15.0,66,0.00,CLR,,0.00,WeatherDisplay:10.37,2013-09-15 14:50:00,
2013-09-15 08:00:00,73.0,60.1,30.58,NNW,336,8.0,15.0,64,0.00,CLR,,0.00,WeatherDisplay:10.37,2013-09-15 15:00:00,
2013-09-15 08:10:00,74.0,60.2,30.56,NNW,340,9.0,15.0,62,0.00,CLR,,0.00,WeatherDisplay:10.37,2013-09-15 15:10:00,
2013-09-15 08:20:00,75.0,59.7,30.58,NNW,331,10.0,15.0,59,0.00,CLR,,0.00,WeatherDisplay:10.37,2013-09-15 15:20:00,
2013-09-15 08:30:00,76.0,60.2,30.61,NNW,343,8.0,16.0,58,0.00,CLR,,0.00,WeatherDisplay:10.37,2013-09-15 15:30:00,
2013-09-15 08:40:00,75.0,58.7,30.50,NNW,342,8.0,15.0,57,0.00,CLR,,0.00,WeatherDisplay:10.37,2013-09-15 15:40:00,
2013-09-15 08:50:00,76.7,59.8,30.39,NNW,336,8.0,16.0,56,0.00,CLR,,0.00,WeatherDisplay:10.37,2013-09-15 15:50:00,
2013-09-15 09:00:00,77.0,60.1,30.38,NNW,328,9.0,14.0,56,0.00,CLR,,0.00,WeatherDisplay:10.37,2013-09-15 16:00:00,
2013-09-15 09:10:00,77.0,59.1,30.38,NNW,327,9.0,16.0,54,0.00,CLR,,0.00,WeatherDisplay:10.37,2013-09-15 16:10:00,
2013-09-15 09:20:00,78.0,60.5,30.38,NW,323,7.0,14.0,55,0.00,CLR,,0.00,WeatherDisplay:10.37,2013-09-15 16:20:00,
2013-09-15 09:30:00,79.0,60.4,30.37,NNW,339,8.0,13.0,53,0.00,CLR,,0.00,WeatherDisplay:10.37,2013-09-15 16:30:00,
2013-09-15 09:40:00,79.3,59.6,30.36,NNW,332,8.0,13.0,51,0.00,CLR,,0.00,WeatherDisplay:10.37,2013-09-15 16:40:00,
2013-09-15 09:50:00,80.0,60.2,30.35,NNW,328,8.0,12.0,51,0.00,CLR,,0.00,WeatherDisplay:10.37,2013-09-15 16:50:00,
2013-09-15 10:00:00,81.0,61.2,30.34,NW,323,6.0,15.0,51,0.00,CLR,,0.00,WeatherDisplay:10.37,2013-09-15 17:00:00,
2013-09-15 10:10:00,81.0,60.6,30.33,NW,310,8.0,12.0,50,0.00,CLR,,0.00,WeatherDisplay:10.37,2013-09-15 17:10:00,
2013-09-15 10:20:00,82.0,59.8,30.33,NW,319,7.0,13.0,47,0.00,CLR,,0.00,WeatherDisplay:10.37,2013-09-15 17:20:00,
2013-09-15 10:30:00,82.0,59.2,30.32,NW,311,7.0,12.0,46,0.00,CLR,,0.00,WeatherDisplay:10.37,2013-09-15 17:30:00,
2013-09-15 10:40:00,83.0,60.7,30.32,NW,317,3.0,7.0,47,0.00,CLR,,0.00,WeatherDisplay:10.37,2013-09-15 17:40:00,
2013-09-15 10:50:00,84.0,57.8,30.30,NW,315,5.0,9.0,41,0.00,CLR,,0.00,WeatherDisplay:10.37,2013-09-15 17:50:00,
2013-09-15 11:00:00,85.0,59.3,30.32,SSE,149,1.0,6.0,42,0.00,CLR,,0.00,WeatherDisplay:10.37,2013-09-15 18:00:00,
2013-09-15 11:10:00,87.0,59.8,30.30,WNW,288,3.0,6.0,40,0.00,CLR,,0.00,WeatherDisplay:10.37,2013-09-15 18:10:00,
2013-09-15 11:20:00,86.4,58.5,30.29,NW,306,5.0,9.0,39,0.00,CLR,,0.00,WeatherDisplay:10.37,2013-09-15 18:20:00,
2013-09-15 11:30:00,86.0,58.9,30.29,NW,311,3.0,10.0,40,0.00,CLR,,0.00,WeatherDisplay:10.37,2013-09-15 18:30:00,
2013-09-15 11:40:00,87.7,59.6,30.29,NE,46,3.0,7.0,39,0.00,CLR,,0.00,WeatherDisplay:10.37,2013-09-15 18:40:00,
2013-09-15 11:50:00,88.0,57.7,30.28,SW,219,2.0,7.0,36,0.00,CLR,,0.00,WeatherDisplay:10.37,2013-09-15 18:50:00,
2013-09-15 12:00:00,88.0,59.9,30.28,East,85,2.0,6.0,39,0.00,CLR,,0.00,WeatherDisplay:10.37,2013-09-15 19:00:00,
2013-09-15 12:10:00,88.0,59.2,30.28,ENE,69,5.0,10.0,38,0.00,CLR,,0.00,WeatherDisplay:10.37,2013-09-15 19:10:00,
2013-09-15 12:20:00,88.6,59.8,30.28,SE,132,2.0,6.0,38,0.00,CLR,,0.00,WeatherDisplay:10.37,2013-09-15 19:20:00,
2013-09-15 12:30:00,89.0,58.6,30.27,SSE,166,0.0,7.0,36,0.00,CLR,,0.00,WeatherDisplay:10.37,2013-09-15 19:30:00,
2013-09-15 12:40:00,89.0,58.6,30.27,North,355,3.0,7.0,36,0.00,CLR,,0.00,WeatherDisplay:10.37,2013-09-15 19:40:00,
2013-09-15 12:50:00,90.0,58.7,30.26,North,8,2.0,7.0,35,0.00,CLR,,0.00,WeatherDisplay:10.37,2013-09-15 19:50:00,
2013-09-15 13:00:00,90.0,58.7,30.26,West,264,0.0,6.0,35,0.00,CLR,,0.00,WeatherDisplay:10.37,2013-09-15 20:00:00,
2013-09-15 13:10:00,88.4,57.2,30.26,SSW,207,6.0,9.0,35,0.00,CLR,,0.00,WeatherDisplay:10.37,2013-09-15 20:10:00,
2013-09-15 13:20:00,88.7,60.5,30.28,SE,134,1.0,8.0,39,0.00,CLR,,0.00,WeatherDisplay:10.37,2013-09-15 20:20:00,
2013-09-15 13:30:00,89.0,57.0,30.28,SE,146,2.0,7.0,34,0.00,CLR,,0.00,WeatherDisplay:10.37,2013-09-15 20:30:00,
2013-09-15 13:40:00,88.0,56.9,30.28,SW,217,0.0,7.0,35,0.00,CLR,,0.00,WeatherDisplay:10.37,2013-09-15 20:40:00,
2013-09-15 13:50:00,89.6,60.6,30.28,ESE,112,5.0,7.0,38,0.00,CLR,,0.00,WeatherDisplay:10.37,2013-09-15 20:50:00,
2013-09-15 14:00:00,91.0,57.9,30.28,NNE,24,0.0,6.0,33,0.00,CLR,,0.00,WeatherDisplay:10.37,2013-09-15 21:00:00,
2013-09-15 14:10:00,92.0,58.8,30.28,WSW,248,6.0,8.0,33,0.00,CLR,,0.00,WeatherDisplay:10.37,2013-09-15 21:10:00,
2013-09-15 14:20:00,89.6,58.4,30.30,West,267,1.0,8.0,35,0.00,CLR,,0.00,WeatherDisplay:10.37,2013-09-15 21:20:00,
2013-09-15 14:30:00,90.0,58.7,30.31,SW,222,5.0,7.0,35,0.00,CLR,,0.00,WeatherDisplay:10.37,2013-09-15 21:30:00,
2013-09-15 14:40:00,91.0,58.7,30.32,SW,228,0.0,5.0,34,0.00,CLR,,0.00,WeatherDisplay:10.37,2013-09-15 21:40:00,
2013-09-15 14:50:00,92.0,58.8,30.31,NNW,341,2.0,7.0,33,0.00,CLR,,0.00,WeatherDisplay:10.37,2013-09-15 21:50:00,
2013-09-15 15:00:00,92.0,59.6,30.32,NW,325,2.0,6.0,34,0.00,CLR,,0.00,WeatherDisplay:10.37,2013-09-15 22:00:00,
2013-09-15 15:10:00,93.0,59.6,30.33,NNE,18,3.0,10.0,33,0.00,CLR,,0.00,WeatherDisplay:10.37,2013-09-15 22:10:00,
2013-09-15 15:20:00,92.0,58.8,30.33,NNW,334,3.0,7.0,33,0.00,CLR,,0.00,WeatherDisplay:10.37,2013-09-15 22:20:00,
2013-09-15 15:30:00,92.0,60.4,30.34,NE,37,3.0,9.0,35,0.00,CLR,,0.00,WeatherDisplay:10.37,2013-09-15 22:30:00,
2013-09-15 15:40:00,91.4,58.2,30.35,ENE,63,8.0,13.0,33,0.00,CLR,,0.00,WeatherDisplay:10.37,2013-09-15 22:40:00,
2013-09-15 15:50:00,90.0,57.9,30.35,ENE,62,7.0,13.0,34,0.00,CLR,,0.00,WeatherDisplay:10.37,2013-09-15 22:50:00,
2013-09-15 16:00:00,90.0,60.2,30.36,NE,53,7.0,12.0,37,0.00,CLR,,0.00,WeatherDisplay:10.37,2013-09-15 23:00:00,
2013-09-15 16:10:00,87.4,60.8,30.43,NE,42,5.0,10.0,41,0.00,CLR,,0.00,WeatherDisplay:10.37,2013-09-15 23:10:00,
2013-09-15 16:20:00,87.4,60.1,30.39,NE,42,6.0,9.0,40,0.00,CLR,,0.00,WeatherDisplay:10.37,2013-09-15 23:20:00,
2013-09-15 16:30:00,85.0,60.6,30.47,NE,49,5.0,9.0,44,0.00,CLR,,0.00,WeatherDisplay:10.37,2013-09-15 23:30:00,
2013-09-15 16:40:00,84.6,62.2,30.50,NE,46,3.0,7.0,47,0.00,CLR,,0.00,WeatherDisplay:10.37,2013-09-15 23:40:00,
2013-09-15 16:50:00,86.6,60.8,30.44,NE,34,5.0,8.0,42,0.00,CLR,,0.00,WeatherDisplay:10.37,2013-09-15 23:50:00,
2013-09-15 17:00:00,87.0,60.5,30.42,NE,47,5.0,9.0,41,0.00,CLR,,0.00,WeatherDisplay:10.37,2013-09-16 00:00:00,
2013-09-15 17:10:00,86.0,60.9,30.44,NE,45,3.0,7.0,43,0.00,CLR,,0.00,WeatherDisplay:10.37,2013-09-16 00:10:00,
2013-09-15 17:20:00,86.0,60.9,30.46,NNE,33,3.0,7.0,43,0.00,CLR,,0.00,WeatherDisplay:10.37,2013-09-16 00:20:00,
2013-09-15 17:30:00,86.0,62.2,30.47,NE,36,1.0,7.0,45,0.00,CLR,,0.00,WeatherDisplay:10.37,2013-09-16 00:30:00,
2013-09-15 17:40:00,85.4,61.6,30.48,North,1,2.0,4.0,45,0.00,CLR,,0.00,WeatherDisplay:10.37,2013-09-16 00:40:00,
2013-09-15 17:50:00,85.0,62.5,30.50,North,360,2.0,4.0,47,0.00,CLR,,0.00,WeatherDisplay:10.37,2013-09-16 00:50:00,
2013-09-15 18:00:00,84.0,64.5,30.51,North,360,1.0,3.0,52,0.00,CLR,,0.00,WeatherDisplay:10.37,2013-09-16 01:00:00,
2013-09-15 18:10:00,82.0,65.3,30.53,North,360,0.0,3.0,57,0.00,CLR,,0.00,WeatherDisplay:10.37,2013-09-16 01:10:00,
2013-09-15 18:20:00,79.0,64.9,30.56,North,360,0.0,2.0,62,0.00,CLR,,0.00,WeatherDisplay:10.37,2013-09-16 01:20:00,
2013-09-15 18:30:00,77.0,65.6,30.58,North,360,0.0,0.0,68,0.00,CLR,,0.00,WeatherDisplay:10.37,2013-09-16 01:30:00,
2013-09-15 18:40:00,75.0,64.5,30.60,North,360,0.0,2.0,70,0.00,CLR,,0.00,WeatherDisplay:10.37,2013-09-16 01:40:00,
2013-09-15 18:50:00,73.4,63.8,30.62,North,360,0.0,0.0,72,0.00,CLR,,0.00,WeatherDisplay:10.37,2013-09-16 01:50:00,
2013-09-15 19:00:00,72.0,62.9,30.63,North,360,0.0,0.0,73,0.00,CLR,,0.00,WeatherDisplay:10.37,2013-09-16 02:00:00,
2013-09-15 19:10:00,71.0,62.3,30.63,North,360,0.0,0.0,74,0.00,CLR,,0.00,WeatherDisplay:10.37,2013-09-16 02:10:00,
2013-09-15 19:20:00,71.0,63.1,30.64,North,360,0.0,0.0,76,0.00,CLR,,0.00,WeatherDisplay:10.37,2013-09-16 02:20:00,
2013-09-15 19:30:00,71.0,63.8,30.65,North,360,0.0,3.0,78,0.00,CLR,,0.00,WeatherDisplay:10.37,2013-09-16 02:30:00,
2013-09-15 19:40:00,71.0,63.8,30.66,North,360,1.0,3.0,78,0.00,CLR,,0.00,WeatherDisplay:10.37,2013-09-16 02:40:00,
2013-09-15 19:50:00,70.6,63.0,30.66,North,360,1.0,6.0,77,0.00,CLR,,0.00,WeatherDisplay:10.37,2013-09-16 02:50:00,
2013-09-15 20:00:00,71.0,62.3,30.67,North,360,0.0,3.0,74,0.00,CLR,,0.00,WeatherDisplay:10.37,2013-09-16 03:00:00,
2013-09-15 20:10:00,71.0,59.9,30.67,NNE,33,2.0,4.0,68,0.00,CLR,,0.00,WeatherDisplay:10.37,2013-09-16 03:10:00,
2013-09-15 20:20:00,72.0,61.7,30.67,North,7,3.0,7.0,70,0.00,CLR,,0.00,WeatherDisplay:10.37,2013-09-16 03:20:00,
2013-09-15 20:30:00,72.0,61.3,30.67,NE,36,3.0,6.0,69,0.00,CLR,,0.00,WeatherDisplay:10.37,2013-09-16 03:30:00,
2013-09-15 20:40:00,73.0,60.5,30.68,NE,45,1.0,5.0,65,0.00,CLR,,0.00,WeatherDisplay:10.37,2013-09-16 03:40:00,
2013-09-15 20:50:00,73.0,61.0,30.68,NE,45,2.0,4.0,66,0.00,CLR,,0.00,WeatherDisplay:10.37,2013-09-16 03:50:00,
2013-09-15 21:00:00,73.0,60.1,30.68,NE,45,1.0,6.0,64,0.00,CLR,,0.00,WeatherDisplay:10.37,2013-09-16 04:00:00,
2013-09-15 21:10:00,73.0,59.2,30.68,East,79,0.0,5.0,62,0.00,CLR,,0.00,WeatherDisplay:10.37,2013-09-16 04:10:00,
2013-09-15 21:20:00,72.0,58.7,30.68,East,98,1.0,4.0,63,0.00,CLR,,0.00,WeatherDisplay:10.37,2013-09-16 04:20:00,
2013-09-15 21:30:00,72.0,59.2,30.68,East,99,1.0,5.0,64,0.00,CLR,,0.00,WeatherDisplay:10.37,2013-09-16 04:30:00,
2013-09-15 21:40:00,72.0,58.3,30.69,ENE,74,0.0,7.0,62,0.00,CLR,,0.00,WeatherDisplay:10.37,2013-09-16 04:40:00,
2013-09-15 21:50:00,72.0,58.3,30.69,ENE,67,0.0,4.0,62,0.00,CLR,,0.00,WeatherDisplay:10.37,2013-09-16 04:50:00,
2013-09-15 22:00:00,72.0,58.3,30.69,East,92,1.0,5.0,62,0.00,CLR,,0.00,WeatherDisplay:10.37,2013-09-16 05:00:00,
2013-09-15 22:10:00,73.0,57.8,30.69,ESE,106,1.0,7.0,59,0.00,CLR,,0.00,WeatherDisplay:10.37,2013-09-16 05:10:00,
2013-09-15 22:20:00,72.4,58.7,30.69,SW,222,3.0,5.0,62,0.00,CLR,,0.00,WeatherDisplay:10.37,2013-09-16 05:20:00,
2013-09-15 22:30:00,71.0,58.6,30.70,SW,225,0.0,0.0,65,0.00,CLR,,0.00,WeatherDisplay:10.37,2013-09-16 05:30:00,
2013-09-15 22:40:00,70.0,59.0,30.71,SW,225,1.0,4.0,68,0.00,CLR,,0.00,WeatherDisplay:10.37,2013-09-16 05:40:00,
2013-09-15 22:50:00,70.0,58.5,30.71,SSW,212,5.0,6.0,67,0.00,CLR,,0.00,WeatherDisplay:10.37,2013-09-16 05:50:00,
2013-09-15 23:00:00,71.0,59.1,30.70,SSW,204,2.0,6.0,66,0.00,CLR,,0.00,WeatherDisplay:10.37,2013-09-16 06:00:00,
2013-09-15 23:10:00,70.0,59.0,30.70,SSW,202,1.0,5.0,68,0.00,CLR,,0.00,WeatherDisplay:10.37,2013-09-16 06:10:00,
2013-09-15 23:20:00,69.0,58.4,30.70,SSW,200,0.0,3.0,69,0.00,CLR,,0.00,WeatherDisplay:10.37,2013-09-16 06:20:00,
2013-09-15 23:30:00,69.0,59.2,30.71,SE,135,0.0,2.0,71,0.00,CLR,,0.00,WeatherDisplay:10.37,2013-09-16 06:30:00,
2013-09-15 23:40:00,68.0,59.4,30.72,SSW,213,1.0,4.0,74,0.00,CLR,,0.00,WeatherDisplay:10.37,2013-09-16 06:40:00,
2013-09-15 23:50:00,67.0,59.2,30.72,SW,225,1.0,3.0,76,0.00,CLR,,0.00,WeatherDisplay:10.37,2013-09-16 06:50:00,